createdAt,value
2023-02-03T00:01:49.750Z,5.20
2023-02-03T00:04:16.599Z,5.20
2023-02-03T00:06:43.505Z,5.13
2023-02-03T00:09:10.378Z,5.28
2023-02-03T00:11:37.574Z,4.63
2023-02-03T00:14:05.389Z,5.50
2023-02-03T00:16:32.294Z,4.75
2023-02-03T00:18:58.992Z,5.07
2023-02-03T00:21:25.729Z,4.80
2023-02-03T00:23:52.616Z,4.43
2023-02-03T00:26:19.287Z,4.13
2023-02-03T00:28:46.507Z,4.27
2023-02-03T00:31:18.484Z,4.37
2023-02-03T00:33:45.249Z,3.63
2023-02-03T00:36:12.895Z,4.67
2023-02-03T00:38:39.682Z,4.00
2023-02-03T00:41:07.467Z,4.17
2023-02-03T00:43:34.266Z,4.10
2023-02-03T00:46:01.087Z,3.60
2023-02-03T00:48:27.935Z,4.43
2023-02-03T00:50:54.695Z,3.33
2023-02-03T00:53:21.443Z,4.43
2023-02-03T00:55:48.200Z,3.10
2023-02-03T00:58:14.995Z,3.40
2023-02-03T01:00:41.746Z,3.80
2023-02-03T01:03:08.587Z,3.00
2023-02-03T01:05:35.396Z,2.90
2023-02-03T01:08:02.275Z,3.40
2023-02-03T01:10:29.939Z,2.77
2023-02-03T01:12:57.092Z,2.60
2023-02-03T01:15:23.833Z,3.10
2023-02-03T01:17:50.627Z,3.40
2023-02-03T01:20:17.591Z,3.03
2023-02-03T01:22:44.349Z,3.20
2023-02-03T01:25:11.134Z,2.67
2023-02-03T01:27:38.013Z,3.17
2023-02-03T01:30:05.166Z,2.97
2023-02-03T01:32:31.926Z,3.30
2023-02-03T01:34:58.693Z,2.93
2023-02-03T01:37:25.432Z,2.47
2023-02-03T01:39:52.316Z,3.40
2023-02-03T01:42:20.143Z,2.77
2023-02-03T01:44:53.699Z,2.60
2023-02-03T01:47:23.421Z,3.03
2023-02-03T01:50:08.408Z,2.77
2023-02-03T01:52:36.934Z,2.70
2023-02-03T01:55:08.089Z,2.83
2023-02-03T01:57:39.877Z,2.87
2023-02-03T02:00:08.087Z,3.00
2023-02-03T02:02:35.525Z,3.07
2023-02-03T02:05:04.010Z,2.83
2023-02-03T02:07:34.007Z,2.63
2023-02-03T02:10:01.313Z,2.27
2023-02-03T02:12:28.138Z,1.97
2023-02-03T02:14:55.368Z,2.97
2023-02-03T02:17:22.046Z,2.50
2023-02-03T02:19:58.630Z,2.27
2023-02-03T02:22:44.789Z,2.20
2023-02-03T02:25:42.023Z,2.20
2023-02-03T02:28:23.795Z,2.40
2023-02-03T02:31:06.038Z,2.20
2023-02-03T02:33:36.964Z,2.53
2023-02-03T02:36:25.391Z,2.30
2023-02-03T02:39:02.836Z,2.90
2023-02-03T02:41:55.398Z,2.43
2023-02-03T02:44:35.421Z,2.60
2023-02-03T02:47:20.015Z,2.50
2023-02-03T02:50:16.756Z,2.03
2023-02-03T02:52:46.408Z,2.40
2023-02-03T02:55:27.937Z,2.93
2023-02-03T02:57:59.527Z,2.30
2023-02-03T03:00:30.712Z,2.75
2023-02-03T03:02:57.639Z,2.47
2023-02-03T03:05:25.255Z,2.47
2023-02-03T03:08:02.211Z,2.33
2023-02-03T03:10:32.526Z,2.87
2023-02-03T03:13:05.435Z,2.40
2023-02-03T03:15:34.311Z,2.30
2023-02-03T03:18:01.027Z,2.10
2023-02-03T03:20:29.002Z,2.30
2023-02-03T03:23:09.558Z,2.90
2023-02-03T03:25:43.539Z,2.60
2023-02-03T03:28:28.387Z,3.00
2023-02-03T03:30:55.425Z,2.58
2023-02-03T03:33:23.278Z,2.33
2023-02-03T03:36:03.285Z,2.30
2023-02-03T03:38:37.416Z,2.55
2023-02-03T03:41:21.320Z,2.70
2023-02-03T03:43:49.869Z,2.27
2023-02-03T03:46:40.147Z,2.60
2023-02-03T03:49:08.538Z,2.67
2023-02-03T03:51:50.320Z,2.27
2023-02-03T03:54:20.468Z,2.57
2023-02-03T03:56:53.887Z,2.90
2023-02-03T03:59:22.886Z,2.63
2023-02-03T04:01:51.732Z,2.90
2023-02-03T04:04:19.673Z,3.60
2023-02-03T04:06:46.536Z,2.83
2023-02-03T04:09:13.310Z,3.60
2023-02-03T04:11:58.545Z,2.53
2023-02-03T04:14:25.328Z,3.40
2023-02-03T04:16:52.113Z,2.70
2023-02-03T04:19:18.832Z,2.47
2023-02-03T04:21:45.590Z,2.40
2023-02-03T04:24:13.029Z,2.93
2023-02-03T04:26:39.895Z,2.90
2023-02-03T04:29:06.796Z,2.33
2023-02-03T04:31:33.585Z,2.20
2023-02-03T04:34:00.385Z,2.80
2023-02-03T04:36:27.111Z,2.33
2023-02-03T04:38:53.820Z,2.13
2023-02-03T04:41:20.547Z,2.13
2023-02-03T04:43:47.288Z,2.23
2023-02-03T04:46:14.209Z,3.10
2023-02-03T04:48:40.964Z,2.47
2023-02-03T04:51:08.671Z,3.00
2023-02-03T04:53:36.054Z,2.00
2023-02-03T04:56:03.186Z,2.40
2023-02-03T04:58:29.962Z,2.17
2023-02-03T05:00:56.651Z,2.43
2023-02-03T05:03:25.818Z,2.33
2023-02-03T05:05:56.414Z,2.43
2023-02-03T05:08:23.119Z,2.73
2023-02-03T05:10:49.899Z,2.30
2023-02-03T05:13:16.702Z,2.60
2023-02-03T05:15:43.413Z,2.40
2023-02-03T05:18:10.211Z,2.73
2023-02-03T05:20:36.996Z,2.33
2023-02-03T05:23:03.791Z,2.03
2023-02-03T05:25:30.618Z,2.50
2023-02-03T05:27:57.498Z,2.30
2023-02-03T05:30:24.397Z,2.07
2023-02-03T05:32:51.187Z,2.23
2023-02-03T05:35:18.126Z,2.72
2023-02-03T05:37:45.901Z,1.83
2023-02-03T05:40:32.380Z,2.33
2023-02-03T05:42:59.194Z,2.40
2023-02-03T05:45:26.157Z,2.57
2023-02-03T05:47:52.887Z,2.00
2023-02-03T05:50:19.615Z,2.17
2023-02-03T05:52:46.379Z,2.13
2023-02-03T05:55:13.117Z,2.03
2023-02-03T05:57:39.954Z,1.57
2023-02-03T06:00:07.642Z,2.15
2023-02-03T06:02:34.369Z,2.40
2023-02-03T06:05:01.090Z,1.98
2023-02-03T06:07:27.765Z,2.00
2023-02-03T06:09:54.451Z,1.47
2023-02-03T06:12:21.266Z,1.70
2023-02-03T06:14:47.973Z,2.60
2023-02-03T06:17:14.639Z,1.60
2023-02-03T06:19:41.302Z,1.27
2023-02-03T06:22:08.002Z,1.70
2023-02-03T06:24:34.781Z,1.30
2023-02-03T06:27:01.507Z,1.60
2023-02-03T06:29:28.158Z,2.00
2023-02-03T06:31:54.953Z,1.77
2023-02-03T06:34:21.865Z,1.50
2023-02-03T06:36:49.202Z,1.50
2023-02-03T06:39:16.138Z,2.00
2023-02-03T06:41:42.887Z,1.97
2023-02-03T06:44:09.555Z,1.40
2023-02-03T06:46:36.359Z,2.53
2023-02-03T06:49:03.125Z,1.50
2023-02-03T06:51:29.848Z,1.57
2023-02-03T06:53:56.596Z,1.60
2023-02-03T06:56:23.373Z,1.80
2023-02-03T06:58:50.256Z,1.43
2023-02-03T07:01:16.968Z,1.77
2023-02-03T07:03:43.912Z,1.93
2023-02-03T07:06:10.607Z,1.50
2023-02-03T07:08:37.347Z,1.47
2023-02-03T07:11:04.325Z,1.60
2023-02-03T07:13:31.077Z,1.63
2023-02-03T07:15:57.874Z,1.60
2023-02-03T07:21:14.233Z,2.23
2023-02-03T07:23:41.200Z,1.85
2023-02-03T07:26:08.567Z,1.50
2023-02-03T07:28:35.918Z,1.90
2023-02-03T07:31:04.870Z,1.67
2023-02-03T07:33:32.033Z,2.17
2023-02-03T07:36:00.027Z,1.77
2023-02-03T07:38:28.205Z,1.53
2023-02-03T07:40:55.170Z,1.20
2023-02-03T07:43:22.169Z,1.73
2023-02-03T07:45:49.108Z,1.93
2023-02-03T07:48:16.089Z,1.73
2023-02-03T07:50:42.838Z,1.83
2023-02-03T07:53:09.587Z,1.63
2023-02-03T07:55:38.305Z,1.87
2023-02-03T07:58:05.082Z,1.67
2023-02-03T08:00:32.161Z,1.02
2023-02-03T08:02:59.096Z,1.23
2023-02-03T08:05:25.898Z,1.50
2023-02-03T08:07:52.621Z,1.30
2023-02-03T08:10:19.531Z,1.40
2023-02-03T08:12:47.059Z,1.20
2023-02-03T08:15:14.383Z,1.15
2023-02-03T08:17:42.073Z,1.30
2023-02-03T08:20:10.617Z,1.37
2023-02-03T08:22:37.376Z,1.93
2023-02-03T08:25:04.528Z,1.23
2023-02-03T08:27:32.910Z,1.50
2023-02-03T08:29:59.906Z,0.90
2023-02-03T08:32:27.391Z,1.30
2023-02-03T08:34:54.361Z,1.40
2023-02-03T08:37:24.402Z,1.40
2023-02-03T08:39:51.882Z,1.40
2023-02-03T08:42:18.660Z,1.80
2023-02-03T08:44:45.466Z,1.40
2023-02-03T08:47:13.132Z,0.97
2023-02-03T08:49:40.190Z,1.50
2023-02-03T08:52:10.473Z,1.30
2023-02-03T08:54:37.220Z,1.00
2023-02-03T08:57:04.252Z,1.07
2023-02-03T08:59:31.231Z,1.53
2023-02-03T09:01:59.928Z,1.50
2023-02-03T09:04:26.807Z,1.57
2023-02-03T09:06:57.374Z,2.30
2023-02-03T09:09:26.405Z,1.40
2023-02-03T09:11:56.996Z,1.53
2023-02-03T09:14:25.361Z,1.30
2023-02-03T09:16:52.087Z,1.33
2023-02-03T09:19:19.267Z,2.35
2023-02-03T09:21:47.828Z,1.50
2023-02-03T09:24:16.109Z,1.83
2023-02-03T09:26:42.830Z,1.83
2023-02-03T09:29:09.550Z,1.87
2023-02-03T09:31:36.454Z,1.53
2023-02-03T09:34:03.179Z,1.07
2023-02-03T09:36:29.883Z,1.70
2023-02-03T09:38:57.891Z,1.67
2023-02-03T09:41:39.641Z,1.50
2023-02-03T09:44:25.468Z,1.83
2023-02-03T09:47:00.716Z,1.70
2023-02-03T09:49:41.052Z,1.73
2023-02-03T09:52:22.732Z,2.00
2023-02-03T09:55:07.588Z,1.38
2023-02-03T09:57:42.716Z,1.60
2023-02-03T10:00:27.507Z,1.23
2023-02-03T10:02:57.283Z,1.87
2023-02-03T10:05:56.190Z,1.80
2023-02-03T10:08:36.579Z,2.17
2023-02-03T10:11:13.426Z,2.83
2023-02-03T10:13:51.725Z,1.70
2023-02-03T10:16:27.375Z,1.50
2023-02-03T10:18:57.249Z,2.07
2023-02-03T10:21:47.214Z,2.17
2023-02-03T10:24:20.722Z,2.05
2023-02-03T10:26:47.594Z,2.10
2023-02-03T10:29:39.726Z,2.07
2023-02-03T10:32:11.517Z,2.20
2023-02-03T10:34:39.062Z,2.23
2023-02-03T10:37:18.013Z,2.43
2023-02-03T10:39:52.867Z,1.97
2023-02-03T10:42:22.324Z,2.87
2023-02-03T10:44:50.059Z,2.30
2023-02-03T10:47:16.812Z,1.73
2023-02-03T10:49:44.876Z,1.65
2023-02-03T10:52:26.274Z,2.30
2023-02-03T10:54:53.018Z,2.17
2023-02-03T10:57:19.796Z,2.20
2023-02-03T10:59:48.568Z,1.93
2023-02-03T11:02:33.733Z,1.73
2023-02-03T11:05:22.480Z,2.27
2023-02-03T11:07:49.427Z,1.80
2023-02-03T11:10:36.147Z,1.93
2023-02-03T11:13:12.066Z,2.17
2023-02-03T11:15:44.318Z,2.00
2023-02-03T11:18:44.426Z,2.03
2023-02-03T11:21:31.533Z,2.20
2023-02-03T11:24:24.502Z,2.40
2023-02-03T11:26:57.103Z,2.53
2023-02-03T11:29:34.369Z,2.80
2023-02-03T11:32:06.786Z,2.80
2023-02-03T11:34:38.063Z,2.87
2023-02-03T11:37:31.230Z,3.37
2023-02-03T11:40:18.057Z,3.80
2023-02-03T11:42:49.301Z,3.90
2023-02-03T11:45:34.118Z,3.97
2023-02-03T11:48:02.554Z,4.63
2023-02-03T11:50:50.465Z,3.53
2023-02-03T11:53:55.191Z,4.53
2023-02-03T11:56:38.551Z,4.13
2023-02-03T11:59:28.520Z,4.57
2023-02-03T12:02:07.386Z,5.80
2023-02-03T12:04:58.719Z,4.47
2023-02-03T12:07:32.429Z,4.33
2023-02-03T12:10:05.756Z,4.70
2023-02-03T12:12:40.484Z,5.07
2023-02-03T12:15:20.454Z,5.40
2023-02-03T12:18:12.875Z,4.73
2023-02-03T12:21:04.596Z,5.55
2023-02-03T12:23:49.172Z,4.47
2023-02-03T12:26:41.959Z,6.57
2023-02-03T12:29:39.465Z,5.00
2023-02-03T12:32:16.461Z,6.28
2023-02-03T12:35:12.261Z,5.90
2023-02-03T12:37:44.808Z,5.00
2023-02-03T12:40:49.902Z,5.45
2023-02-03T12:43:43.997Z,5.80
2023-02-03T12:46:18.212Z,6.22
2023-02-03T12:49:03.077Z,5.63
2023-02-03T12:51:41.276Z,6.07
2023-02-03T12:54:45.564Z,6.70
2023-02-03T12:57:27.565Z,6.00
2023-02-03T13:00:06.803Z,6.20
2023-02-03T13:02:45.739Z,6.10
2023-02-03T13:05:42.669Z,5.87
2023-02-03T13:08:15.797Z,6.50
2023-02-03T13:10:50.240Z,6.57
2023-02-03T13:13:28.255Z,7.10
2023-02-03T13:15:57.240Z,6.47
2023-02-03T13:18:37.557Z,7.57
2023-02-03T13:21:04.829Z,7.63
2023-02-03T13:23:32.529Z,7.50
2023-02-03T13:26:27.954Z,7.40
2023-02-03T13:29:26.448Z,7.70
2023-02-03T13:32:04.635Z,8.02
2023-02-03T13:34:43.663Z,9.25
2023-02-03T13:37:28.825Z,8.73
2023-02-03T13:40:19.411Z,8.57
2023-02-03T13:42:57.528Z,8.98
2023-02-03T13:45:30.034Z,9.80
2023-02-03T13:48:15.937Z,8.43
2023-02-03T13:50:44.297Z,8.57
2023-02-03T13:53:24.281Z,9.63
2023-02-03T13:56:00.139Z,9.07
2023-02-03T13:58:30.482Z,9.43
2023-02-03T14:00:57.178Z,9.60
2023-02-03T14:03:26.784Z,10.50
2023-02-03T14:05:55.259Z,11.10
2023-02-03T14:08:27.751Z,9.73
2023-02-03T14:11:31.769Z,9.23
2023-02-03T14:14:20.828Z,8.53
2023-02-03T14:16:58.084Z,9.55
2023-02-03T14:19:31.442Z,9.25
2023-02-03T14:22:15.304Z,8.83
2023-02-03T14:24:48.260Z,9.48
2023-02-03T14:27:22.852Z,9.23
2023-02-03T14:30:10.133Z,8.13
2023-02-03T14:32:49.346Z,9.37
2023-02-03T14:35:19.538Z,9.17
2023-02-03T14:37:54.941Z,8.60
2023-02-03T14:40:49.350Z,7.57
2023-02-03T14:43:49.984Z,7.43
2023-02-03T14:46:41.381Z,7.47
2023-02-03T14:49:59.919Z,7.57
2023-02-03T14:52:38.909Z,7.37
2023-02-03T14:56:00.009Z,6.60
2023-02-03T14:58:34.350Z,6.05
2023-02-03T15:01:04.807Z,5.63
2023-02-03T15:03:31.930Z,6.25
2023-02-03T15:06:02.489Z,22.20
2023-02-03T15:08:47.039Z,16.87
2023-02-03T15:11:30.439Z,14.97
2023-02-03T15:14:21.472Z,22.33
2023-02-03T15:16:57.605Z,12.25
2023-02-03T15:19:28.380Z,12.40
2023-02-03T15:21:55.527Z,12.03
2023-02-03T15:24:24.189Z,16.17
2023-02-03T15:26:54.398Z,12.07
2023-02-03T15:29:26.412Z,17.57
2023-02-03T15:32:11.007Z,19.00
2023-02-03T15:34:43.928Z,15.70
2023-02-03T15:37:22.167Z,16.23
2023-02-03T15:40:14.363Z,11.97
2023-02-03T15:43:21.875Z,6.50
2023-02-03T15:46:18.206Z,9.07
2023-02-03T15:48:55.609Z,4.40
2023-02-03T15:51:27.716Z,5.70
2023-02-03T15:54:06.470Z,6.33
2023-02-03T15:56:41.184Z,7.40
2023-02-03T15:59:42.275Z,6.13
2023-02-03T16:02:11.983Z,4.60
2023-02-03T16:04:38.888Z,4.93
2023-02-03T16:07:05.905Z,4.63
2023-02-03T16:09:35.069Z,4.30
2023-02-03T16:12:22.782Z,4.20
2023-02-03T16:14:50.273Z,6.00
2023-02-03T16:17:29.626Z,4.10
2023-02-03T16:20:12.116Z,4.67
2023-02-03T16:22:42.632Z,3.47
2023-02-03T16:25:28.422Z,4.53
2023-02-03T16:28:37.181Z,4.20
2023-02-03T16:31:37.242Z,4.30
2023-02-03T16:34:37.420Z,4.27
2023-02-03T16:37:44.504Z,4.33
2023-02-03T16:40:32.218Z,4.43
2023-02-03T16:43:17.633Z,5.40
2023-02-03T16:46:03.047Z,4.30
2023-02-03T16:48:48.526Z,5.10
2023-02-03T16:51:17.077Z,5.00
2023-02-03T16:53:45.867Z,5.05
2023-02-03T16:56:13.698Z,4.43
2023-02-03T16:58:40.712Z,4.87
2023-02-03T17:01:09.667Z,4.57
2023-02-03T17:03:37.756Z,4.30
2023-02-03T17:06:10.214Z,4.80
2023-02-03T17:08:37.875Z,5.67
2023-02-03T17:11:11.381Z,5.03
2023-02-03T17:13:38.204Z,5.60
2023-02-03T17:16:17.012Z,5.00
2023-02-03T17:18:45.680Z,3.93
2023-02-03T17:21:16.403Z,3.80
2023-02-03T17:23:43.526Z,3.58
2023-02-03T17:26:10.264Z,4.07
2023-02-03T17:28:39.289Z,3.33
2023-02-03T17:31:07.539Z,3.57
2023-02-03T17:33:35.203Z,3.20
2023-02-03T17:36:16.521Z,3.43
2023-02-03T17:55:18.645Z,3.22
2023-02-03T17:57:45.514Z,4.20
2023-02-03T18:00:12.767Z,4.15
2023-02-03T18:02:39.889Z,4.18
2023-02-03T18:05:07.099Z,4.07
2023-02-03T18:07:33.850Z,5.17
2023-02-03T18:10:00.559Z,3.95
2023-02-03T18:12:27.638Z,4.83
2023-02-03T18:14:54.379Z,3.93
2023-02-03T18:17:21.107Z,3.73
2023-02-03T18:19:54.768Z,4.87
2023-02-03T18:22:22.327Z,5.43
2023-02-03T18:24:52.318Z,5.73
2023-02-03T18:27:19.958Z,4.53
2023-02-03T18:29:48.135Z,3.27
2023-02-03T18:32:16.127Z,4.05
2023-02-03T18:34:43.381Z,4.30
2023-02-03T18:37:11.352Z,3.20
2023-02-03T18:39:38.273Z,3.90
2023-02-03T18:42:07.178Z,5.10
2023-02-03T18:44:34.060Z,3.80
2023-02-03T18:47:06.859Z,3.57
2023-02-03T18:49:38.153Z,3.93
2023-02-03T18:52:05.460Z,3.77
2023-02-03T18:54:32.419Z,3.57
2023-02-03T18:56:59.717Z,3.30
2023-02-03T18:59:26.724Z,3.03
2023-02-03T19:01:53.494Z,2.67
2023-02-03T19:04:20.750Z,4.05
2023-02-03T19:06:47.999Z,3.13
2023-02-03T19:09:17.077Z,3.70
2023-02-03T19:11:44.594Z,3.53
2023-02-03T19:14:13.164Z,3.70
2023-02-03T19:16:40.209Z,3.50
2023-02-03T19:19:07.029Z,3.33
2023-02-03T19:21:33.824Z,4.97
2023-02-03T19:24:00.640Z,3.25
2023-02-03T19:26:27.949Z,4.03
2023-02-03T19:28:55.842Z,3.87
2023-02-03T19:31:22.992Z,3.83
2023-02-03T19:33:49.968Z,4.60
2023-02-03T19:36:16.817Z,4.53
2023-02-03T19:38:43.604Z,4.20
2023-02-03T19:41:11.755Z,4.57
2023-02-03T19:43:40.110Z,5.20
2023-02-03T19:46:07.727Z,4.77
2023-02-03T19:48:34.594Z,5.23
2023-02-03T19:51:01.556Z,6.17
2023-02-03T19:53:28.339Z,5.17
2023-02-03T19:55:55.074Z,5.97
2023-02-03T19:58:23.529Z,5.50
2023-02-03T20:00:50.718Z,6.47
2023-02-03T20:03:18.322Z,5.37
2023-02-03T20:05:45.794Z,6.30
2023-02-03T20:08:14.855Z,6.13
2023-02-03T20:10:44.565Z,7.73
2023-02-03T20:13:14.906Z,7.15
2023-02-03T20:15:42.223Z,7.40
2023-02-03T20:18:08.980Z,8.13
2023-02-03T20:20:36.635Z,7.17
2023-02-03T20:23:03.618Z,8.03
2023-02-03T20:25:30.801Z,8.10
2023-02-03T20:27:59.608Z,8.00
2023-02-03T20:30:27.071Z,8.40
2023-02-03T20:32:54.742Z,8.43
2023-02-03T20:35:23.828Z,8.20
2023-02-03T20:37:51.030Z,8.60
2023-02-03T20:40:19.328Z,9.30
2023-02-03T20:42:47.329Z,8.33
2023-02-03T20:45:16.489Z,8.00
2023-02-03T20:47:44.220Z,7.40
2023-02-03T20:50:18.415Z,6.50
2023-02-03T20:52:49.913Z,6.63
2023-02-03T20:55:22.395Z,5.10
2023-02-03T20:57:55.085Z,5.93
2023-02-03T21:00:26.576Z,6.13
2023-02-03T21:03:12.689Z,6.30
2023-02-03T21:05:45.466Z,5.40
2023-02-03T21:08:20.305Z,6.00
2023-02-03T21:10:48.745Z,4.43
2023-02-03T21:13:27.815Z,5.80
2023-02-03T21:15:57.170Z,4.60
2023-02-03T21:18:53.842Z,4.50
2023-02-03T21:21:34.182Z,5.40
2023-02-03T21:24:01.861Z,3.90
2023-02-03T21:26:30.735Z,4.00
2023-02-03T21:28:59.609Z,3.60
2023-02-03T21:31:31.709Z,3.83
2023-02-03T21:34:21.332Z,3.83
2023-02-03T21:36:48.109Z,3.80
2023-02-03T21:39:32.784Z,3.70
2023-02-03T21:42:41.222Z,3.50
2023-02-03T21:45:17.042Z,3.50
2023-02-03T21:47:45.885Z,3.70
2023-02-03T21:50:31.847Z,4.28
2023-02-03T21:53:08.013Z,4.47
2023-02-03T21:55:40.193Z,5.80
2023-02-03T21:58:24.089Z,3.90
2023-02-03T22:00:53.152Z,6.03
2023-02-03T22:03:40.523Z,3.50
2023-02-03T22:06:13.987Z,4.10
2023-02-03T22:08:48.953Z,4.50
2023-02-03T22:11:17.106Z,4.90
2023-02-03T22:13:44.187Z,4.60
2023-02-03T22:16:13.712Z,3.63
2023-02-03T22:18:41.409Z,5.53
2023-02-03T22:21:08.361Z,4.10
2023-02-03T22:23:35.290Z,3.40
2023-02-03T22:26:02.024Z,3.40
2023-02-03T22:28:28.841Z,3.67
2023-02-03T22:30:55.657Z,3.10
2023-02-03T22:33:22.467Z,4.20
2023-02-03T22:35:49.219Z,4.37
2023-02-03T22:38:15.959Z,3.80
2023-02-03T22:40:42.823Z,3.80
2023-02-03T22:43:09.503Z,3.20
2023-02-03T22:45:36.255Z,3.88
2023-02-03T22:48:03.258Z,4.40
2023-02-03T22:50:35.942Z,4.63
2023-02-03T22:53:04.263Z,4.30
2023-02-03T22:55:31.890Z,4.30
2023-02-03T22:57:59.206Z,4.53
2023-02-03T23:00:26.651Z,4.50
2023-02-03T23:02:53.750Z,4.50
2023-02-03T23:05:20.528Z,4.03
2023-02-03T23:07:47.892Z,3.53
2023-02-03T23:10:17.904Z,4.37
2023-02-03T23:12:44.925Z,3.67
2023-02-03T23:15:12.734Z,3.70
2023-02-03T23:17:40.288Z,4.13
2023-02-03T23:20:09.358Z,2.90
2023-02-03T23:22:36.310Z,2.77
2023-02-03T23:25:03.699Z,3.92
2023-02-03T23:27:30.771Z,3.50
2023-02-03T23:29:57.524Z,4.70
2023-02-03T23:32:24.371Z,3.07
2023-02-03T23:35:09.949Z,3.87
2023-02-03T23:37:37.085Z,3.80
2023-02-03T23:40:04.958Z,4.43
2023-02-03T23:42:31.853Z,4.10
2023-02-03T23:44:59.305Z,3.80
2023-02-03T23:47:26.189Z,3.73
2023-02-03T23:49:53.039Z,4.37
2023-02-03T23:52:19.738Z,3.90
2023-02-03T23:54:46.484Z,3.90
2023-02-03T23:57:13.191Z,3.30
2023-02-03T23:59:39.914Z,4.20
